EGAC/BHD METAR and TAF weather

Enter ICAO airport designator
Station Type Date Time Source
EGAC METAR 2022/01/26 19:50 UTC NOAA

EGAC 261950Z AUTO 23015G26KT 9999 OVC011/// 11/08 Q1020


Station Type Date Time Source
EGAC Decoded METAR 2022/01/26 19:50 UTC NOAA

Belfast / Harbour, United Kingdom (EGAC) 54-36N 005-53W 0M
Jan 26, 2022 - 02:50 PM EST / 2022.01.26 1950 UTC
Wind: from the SW (230 degrees) at 17 MPH (15 KT) gusting to 30 MPH (26 KT):0
Visibility: greater than 7 mile(s):0
Sky conditions: overcast
Temperature: 51 F (11 C)
Dew Point: 46 F (8 C)
Relative Humidity: 81%
Pressure (altimeter): 30.12 in. Hg (1020 hPa)
ob: EGAC 261950Z AUTO 23015G26KT 9999 OVC011/// 11/08 Q1020
cycle: 20

Station Type Date Time Source
EGAC TAF 2021/12/01 18:06 UTC NOAA

TAF TAF EGAC 010102Z 3018/0103 CNL

Example: see airport list